EGTE

Exeter International Airport

Exeter, United Kingdom
METAR EGTE 191950Z 24006KT 9999 FEW020 20/16 Q1023
Observed Flight Rules
Jun-19 @ 19:50 UTC (23 minutes ago) Visual Flight Rules
Wind Visibility Clouds
240° at 6 knots 10,000+ meters
  • Few at 2,000' AGL
Temperatures Readings
Current 20°C / 68°F
Dewpoint 16°C / 61°F
Humidity 78%
Altimeter 30.21" Hg
Pressure 1023 hPa
Elevation 30
METAR EGTE 191950Z 24006KT 9999 FEW020 20/16 Q1023
Observed Flight Rules
Jun-19 @ 19:50 UTC
(23 minutes ago)
VFR
Wind Visibility
240° at 6 knots 10,000+ meters
Clouds
  • Few at 2,000' AGL
Temperature Dewpoint
20°C / 68°F 16°C / 61°F
Humidity Altimeter Pressure
78% 30.21" Hg 1023 hPa